Time;durP1;ratioP1;P1;durP2;ratioP2;P2;SDS_P1;SDS_P2;PMS_P1;PMS_P2;Temp;Humidity;BMP_temperature;BMP_pressure;BME280_temperature;BME280_humidity;BME280_pressure;Samples;Min_cycle;Max_cycle;Signal;HPM_P1;HPM_P2
2021/08/25 00:00:00;;;;;;;13.70;12.27;;;13.60;99.90;;;;;;6206947;23;20594;-96
2021/08/25 00:02:28;;;;;;;14.03;12.90;;;13.60;99.90;;;;;;6206565;23;20629;-95
2021/08/25 00:04:55;;;;;;;12.47;11.57;;;13.60;99.90;;;;;;6197814;23;20690;-94
2021/08/25 00:07:26;;;;;;;15.67;14.40;;;13.60;99.90;;;;;;6194334;23;20586;-92
2021/08/25 00:09:53;;;;;;;13.27;12.27;;;13.60;99.90;;;;;;6196706;23;20579;-94
2021/08/25 00:12:32;;;;;;;12.43;11.53;;;13.60;99.90;;;;;;6215120;23;20627;-94
2021/08/25 00:15:07;;;;;;;12.73;11.73;;;13.50;99.90;;;;;;6217137;23;20555;-95
2021/08/25 00:17:37;;;;;;;12.73;11.83;;;13.50;99.90;;;;;;6216030;23;20567;-95
2021/08/25 00:20:08;;;;;;;13.83;12.73;;;13.60;99.90;;;;;;6211257;23;20625;-94
2021/08/25 00:22:37;;;;;;;13.50;12.50;;;13.50;99.90;;;;;;6198318;23;20729;-95
2021/08/25 00:25:05;;;;;;;14.07;12.97;;;13.50;99.90;;;;;;6199661;23;20926;-95
2021/08/25 00:27:33;;;;;;;12.77;11.87;;;13.40;99.90;;;;;;6197940;23;20678;-95
2021/08/25 00:30:02;;;;;;;12.47;11.57;;;13.50;99.90;;;;;;6198533;23;20999;-94
2021/08/25 00:32:31;;;;;;;13.00;12.10;;;13.50;99.90;;;;;;6198125;23;20630;-93
2021/08/25 00:34:58;;;;;;;13.33;12.40;;;13.50;99.90;;;;;;6193442;23;21136;-92
2021/08/25 00:37:25;;;;;;;13.27;12.37;;;13.50;99.90;;;;;;6189502;23;20599;-95
2021/08/25 00:39:52;;;;;;;13.60;12.60;;;13.50;99.90;;;;;;6187790;23;20587;-93
2021/08/25 00:42:19;;;;;;;13.47;12.47;;;13.50;99.90;;;;;;6187515;23;20626;-94
2021/08/25 00:44:47;;;;;;;14.13;13.13;;;13.40;99.90;;;;;;6188085;23;20671;-93
2021/08/25 00:47:21;;;;;;;12.73;11.73;;;13.40;99.90;;;;;;6200132;23;20638;-96
2021/08/25 01:02:36;;;;;;;12.80;11.83;;;13.30;99.90;;;;;;6175600;23;20634;-95
2021/08/25 01:05:22;;;;;;;12.10;11.30;;;13.30;99.90;;;;;;6210019;23;20634;-96
2021/08/25 01:07:49;;;;;;;12.90;12.00;;;13.30;99.90;;;;;;6199547;23;20965;-94
2021/08/25 01:10:25;;;;;;;12.63;11.17;;;13.20;99.90;;;;;;6202546;23;20884;-95
2021/08/25 01:12:54;;;;;;;11.90;11.07;;;13.20;99.90;;;;;;6207340;23;20580;-94
2021/08/25 01:15:23;;;;;;;12.20;11.40;;;13.20;99.90;;;;;;6202737;23;20607;-94
2021/08/25 01:17:53;;;;;;;12.93;12.13;;;13.20;99.90;;;;;;6192461;23;20594;-95
2021/08/25 01:20:22;;;;;;;13.07;11.97;;;13.20;99.90;;;;;;6194639;23;20654;-95
2021/08/25 01:22:56;;;;;;;13.20;12.20;;;13.20;99.90;;;;;;6193760;23;20607;-94
2021/08/25 01:25:34;;;;;;;12.40;11.50;;;13.20;99.90;;;;;;6190880;23;20646;-94
2021/08/25 01:28:04;;;;;;;11.37;10.57;;;13.30;99.90;;;;;;6191114;23;20610;-94
2021/08/25 01:30:41;;;;;;;11.73;10.97;;;13.30;99.90;;;;;;6189925;23;20543;-96
2021/08/25 01:35:54;;;;;;;12.37;11.43;;;13.20;99.90;;;;;;6213473;23;20682;-95
2021/08/25 01:41:41;;;;;;;12.30;11.30;;;12.90;99.90;;;;;;6209926;23;20685;-96
2021/08/25 01:44:13;;;;;;;13.10;12.20;;;12.90;99.90;;;;;;6209525;23;20627;-96
2021/08/25 01:46:51;;;;;;;13.40;12.50;;;12.90;99.90;;;;;;6209917;23;20643;-96
2021/08/25 01:49:19;;;;;;;13.53;12.63;;;12.80;99.90;;;;;;6179710;23;20591;-96
2021/08/25 01:51:48;;;;;;;13.60;12.50;;;12.70;99.90;;;;;;6205360;23;20594;-96
2021/08/25 01:54:17;;;;;;;12.93;12.03;;;12.60;99.90;;;;;;6200455;23;20607;-96
2021/08/25 01:56:44;;;;;;;14.33;12.90;;;12.60;99.90;;;;;;6194925;23;20596;-95
2021/08/25 01:59:12;;;;;;;13.23;12.23;;;12.50;99.90;;;;;;6193948;23;20595;-95
2021/08/25 02:01:40;;;;;;;13.20;12.13;;;12.40;99.90;;;;;;6179111;23;20654;-94
2021/08/25 02:04:08;;;;;;;14.30;13.27;;;12.40;99.90;;;;;;6187208;23;20583;-95
2021/08/25 02:06:37;;;;;;;13.13;12.23;;;12.30;99.90;;;;;;6189142;23;20957;-95
2021/08/25 02:09:07;;;;;;;13.30;12.30;;;12.20;99.90;;;;;;6189172;23;20663;-94
2021/08/25 02:11:35;;;;;;;13.30;12.27;;;12.10;99.90;;;;;;6196247;23;20643;-96
2021/08/25 02:14:04;;;;;;;13.67;12.57;;;12.10;99.90;;;;;;6196676;23;20618;-96
2021/08/25 02:16:39;;;;;;;13.73;12.73;;;12.00;99.90;;;;;;6196852;23;21131;-96
2021/08/25 02:19:13;;;;;;;13.40;12.50;;;12.20;99.90;;;;;;6197845;23;20578;-96
2021/08/25 02:21:40;;;;;;;13.83;12.70;;;12.20;99.90;;;;;;6198845;23;20634;-96
2021/08/25 02:24:08;;;;;;;14.27;13.27;;;12.20;99.90;;;;;;6189501;23;20580;-94
2021/08/25 02:26:35;;;;;;;15.13;13.80;;;12.30;99.90;;;;;;6183494;23;20614;-95
2021/08/25 02:29:05;;;;;;;15.17;13.87;;;12.40;99.90;;;;;;6197976;23;20583;-96
2021/08/25 02:31:33;;;;;;;15.23;13.83;;;12.40;99.90;;;;;;6173736;23;20953;-96
2021/08/25 02:34:01;;;;;;;15.77;14.50;;;12.40;99.90;;;;;;6194478;23;20594;-96
2021/08/25 02:36:31;;;;;;;15.43;14.07;;;12.40;99.90;;;;;;6192156;23;20603;-96
2021/08/25 02:42:40;;;;;;;14.93;13.93;;;12.30;99.90;;;;;;6208916;23;20669;-95
2021/08/25 03:04:31;;;;;;;16.67;15.47;;;12.40;99.90;;;;;;6197300;23;20652;-96
2021/08/25 03:07:00;;;;;;;16.20;14.90;;;12.50;99.90;;;;;;6195212;23;20678;-96
2021/08/25 03:12:32;;;;;;;16.63;15.40;;;12.50;99.90;;;;;;6187303;23;20654;-95
2021/08/25 03:15:13;;;;;;;15.60;14.50;;;12.50;99.90;;;;;;6188169;23;20580;-94
2021/08/25 03:17:41;;;;;;;16.37;15.10;;;12.60;99.90;;;;;;6189229;23;20678;-95
2021/08/25 03:20:11;;;;;;;17.30;16.10;;;12.60;99.90;;;;;;6185521;23;21108;-95
2021/08/25 03:22:41;;;;;;;16.50;15.00;;;12.50;99.90;;;;;;6186154;23;20610;-93
2021/08/25 03:25:10;;;;;;;16.40;15.20;;;12.50;99.90;;;;;;6187382;23;21088;-95
2021/08/25 03:27:39;;;;;;;16.30;15.17;;;12.50;99.90;;;;;;6194895;23;20591;-95
2021/08/25 03:30:19;;;;;;;15.50;14.40;;;12.50;99.90;;;;;;6197970;23;20599;-96
2021/08/25 03:33:03;;;;;;;16.47;15.27;;;12.50;99.90;;;;;;6206069;23;20595;-95
2021/08/25 03:35:38;;;;;;;17.50;16.30;;;12.60;99.90;;;;;;6195579;23;20642;-95
2021/08/25 03:44:52;;;;;;;16.00;14.90;;;12.40;99.90;;;;;;6189383;23;20572;-96
2021/08/25 03:47:22;;;;;;;17.13;15.83;;;12.40;99.90;;;;;;6189988;23;20584;-96
2021/08/25 03:49:51;;;;;;;16.90;15.70;;;12.30;99.90;;;;;;6193117;23;20595;-96
2021/08/25 04:00:12;;;;;;;16.77;15.47;;;12.40;99.90;;;;;;6198426;23;20633;-93
2021/08/25 04:02:39;;;;;;;16.07;14.90;;;12.40;99.90;;;;;;6190861;23;20603;-93
2021/08/25 04:05:07;;;;;;;17.83;16.00;;;12.40;99.90;;;;;;6199336;23;20569;-92
2021/08/25 04:07:34;;;;;;;16.57;15.37;;;12.40;99.90;;;;;;6209035;23;20639;-94
2021/08/25 04:10:01;;;;;;;16.20;15.03;;;12.30;99.90;;;;;;6178506;23;20595;-93
2021/08/25 04:12:30;;;;;;;17.00;15.73;;;12.20;99.90;;;;;;6157344;23;21116;-94
2021/08/25 04:14:57;;;;;;;15.97;14.77;;;12.20;99.90;;;;;;6154034;23;20600;-94
2021/08/25 04:17:26;;;;;;;16.57;15.37;;;12.20;99.90;;;;;;6153830;23;20684;-93
2021/08/25 04:19:52;;;;;;;16.83;15.37;;;12.20;99.90;;;;;;6155739;23;20622;-93
2021/08/25 04:22:19;;;;;;;16.10;14.83;;;12.10;99.90;;;;;;6155884;23;20619;-94
2021/08/25 04:24:46;;;;;;;16.37;15.13;;;12.20;99.90;;;;;;6154440;23;20690;-93
2021/08/25 04:27:13;;;;;;;17.17;15.77;;;12.20;99.90;;;;;;6154044;23;20580;-93
2021/08/25 04:29:40;;;;;;;16.50;15.40;;;12.10;99.90;;;;;;6153387;23;20612;-92
2021/08/25 04:32:15;;;;;;;16.70;15.40;;;12.00;99.90;;;;;;6152433;23;20584;-94
2021/08/25 04:39:54;;;;;;;16.77;15.67;;;11.90;99.90;;;;;;6205675;23;20652;-94
2021/08/25 04:42:21;;;;;;;16.53;15.10;;;11.80;99.90;;;;;;6157436;23;20630;-94
2021/08/25 04:44:48;;;;;;;16.60;15.40;;;11.80;99.90;;;;;;6182913;23;20678;-93
2021/08/25 04:47:15;;;;;;;17.00;15.70;;;11.70;99.90;;;;;;6183115;23;20590;-96
2021/08/25 04:49:42;;;;;;;16.03;14.93;;;11.60;99.90;;;;;;6185869;23;20643;-96
2021/08/25 04:52:11;;;;;;;17.60;16.30;;;11.70;99.90;;;;;;6188603;23;20610;-96
2021/08/25 04:54:38;;;;;;;17.50;16.10;;;11.60;99.90;;;;;;6182659;23;21047;-93
2021/08/25 04:57:07;;;;;;;17.03;15.63;;;11.60;99.90;;;;;;6184638;23;20614;-94
2021/08/25 04:59:33;;;;;;;15.50;14.30;;;11.60;99.90;;;;;;6185853;23;21111;-94
2021/08/25 05:02:01;;;;;;;15.67;14.67;;;11.50;99.90;;;;;;6191534;23;20610;-93
2021/08/25 05:12:47;;;;;;;15.63;14.43;;;11.60;99.90;;;;;;6190595;23;20650;-95
2021/08/25 05:15:21;;;;;;;15.80;14.37;;;11.60;99.90;;;;;;6192708;23;20602;-95
2021/08/25 05:17:57;;;;;;;17.07;15.87;;;11.60;99.90;;;;;;6193803;23;20603;-95
2021/08/25 05:20:30;;;;;;;15.23;14.23;;;11.70;99.90;;;;;;6169960;23;20601;-96
2021/08/25 05:22:58;;;;;;;17.27;15.87;;;11.70;99.90;;;;;;6193461;23;20654;-95
2021/08/25 05:25:28;;;;;;;15.87;14.70;;;11.70;99.90;;;;;;6189997;23;20952;-96
2021/08/25 05:31:21;;;;;;;17.30;15.80;;;11.90;99.90;;;;;;6201108;23;20571;-95
2021/08/25 05:33:56;;;;;;;17.23;15.83;;;12.10;99.90;;;;;;6199430;23;20551;-96
2021/08/25 05:39:20;;;;;;;22.10;16.63;;;12.30;99.90;;;;;;6201223;23;20588;-96
2021/08/25 05:41:49;;;;;;;16.20;14.80;;;12.30;99.90;;;;;;6196522;23;21112;-95
2021/08/25 05:44:17;;;;;;;15.17;13.97;;;12.40;99.90;;;;;;6196225;23;21124;-95
2021/08/25 05:46:54;;;;;;;15.13;13.73;;;12.40;99.90;;;;;;6195767;23;20662;-96
2021/08/25 05:49:21;;;;;;;14.20;13.10;;;12.60;99.90;;;;;;6193362;23;20598;-96
2021/08/25 05:51:50;;;;;;;14.33;13.13;;;12.70;99.90;;;;;;6194882;23;20586;-96
2021/08/25 05:54:18;;;;;;;14.57;13.37;;;12.70;99.90;;;;;;6194295;23;20567;-96
2021/08/25 05:59:40;;;;;;;13.67;12.37;;;13.00;99.90;;;;;;6195945;23;20642;-96
2021/08/25 06:02:09;;;;;;;13.50;12.47;;;13.10;99.90;;;;;;6205494;23;20603;-96
2021/08/25 06:04:37;;;;;;;12.47;11.53;;;13.20;99.90;;;;;;6209717;23;20603;-96
2021/08/25 06:07:11;;;;;;;13.93;12.83;;;13.30;99.90;;;;;;6197327;23;20607;-96
2021/08/25 06:09:38;;;;;;;12.27;11.20;;;13.40;99.90;;;;;;6198362;23;20572;-96
2021/08/25 06:12:07;;;;;;;11.33;10.53;;;13.50;99.90;;;;;;6190366;23;20626;-96
2021/08/25 06:14:34;;;;;;;12.10;11.10;;;13.50;99.90;;;;;;6191910;23;20611;-96
2021/08/25 06:17:01;;;;;;;11.50;10.70;;;13.70;99.90;;;;;;6186212;23;20666;-93
2021/08/25 06:19:30;;;;;;;10.70;9.90;;;13.80;99.90;;;;;;6185727;23;21038;-94
2021/08/25 06:21:58;;;;;;;12.37;11.37;;;14.00;99.90;;;;;;6186597;23;20629;-96
2021/08/25 06:24:33;;;;;;;11.03;10.03;;;14.10;99.90;;;;;;6185199;23;20654;-93
2021/08/25 06:27:02;;;;;;;10.73;9.93;;;14.30;99.90;;;;;;6184947;23;20928;-93
2021/08/25 06:29:32;;;;;;;10.80;10.00;;;14.40;99.90;;;;;;6183548;23;20674;-93
2021/08/25 06:32:02;;;;;;;10.67;9.67;;;14.50;99.90;;;;;;6185769;23;20593;-92
2021/08/25 06:34:39;;;;;;;10.50;9.70;;;14.60;99.90;;;;;;6184927;23;20586;-93
2021/08/25 06:37:08;;;;;;;10.20;9.40;;;14.70;99.90;;;;;;6186149;23;20702;-96
2021/08/25 06:39:36;;;;;;;10.73;9.30;;;14.90;99.90;;;;;;6192042;23;20581;-95
2021/08/25 06:42:03;;;;;;;10.23;9.37;;;14.90;99.90;;;;;;6189827;23;21104;-96
2021/08/25 06:44:30;;;;;;;10.03;8.83;;;15.00;99.90;;;;;;6191455;23;20575;-95
2021/08/25 06:46:57;;;;;;;9.20;8.20;;;15.20;99.90;;;;;;6184194;23;20618;-93
2021/08/25 06:49:24;;;;;;;7.90;7.20;;;15.30;99.90;;;;;;6183987;23;20697;-94
2021/08/25 06:51:52;;;;;;;7.53;6.93;;;15.50;99.90;;;;;;6186899;23;20614;-95
2021/08/25 06:54:20;;;;;;;7.40;6.83;;;15.60;99.90;;;;;;6184795;23;20589;-93
2021/08/25 06:56:47;;;;;;;7.90;7.10;;;15.60;99.90;;;;;;6184275;23;20637;-94
2021/08/25 06:59:14;;;;;;;7.20;6.60;;;15.70;99.90;;;;;;6184796;23;21001;-94
2021/08/25 07:01:41;;;;;;;7.37;6.77;;;15.70;99.90;;;;;;6184311;23;21096;-95
2021/08/25 07:04:08;;;;;;;6.67;6.07;;;15.90;99.90;;;;;;6185676;23;20643;-95
2021/08/25 07:06:34;;;;;;;6.80;6.20;;;16.00;99.90;;;;;;6187139;23;20555;-94
2021/08/25 07:09:03;;;;;;;6.60;6.10;;;16.10;99.90;;;;;;6180823;23;20587;-93
2021/08/25 07:11:30;;;;;;;6.53;6.03;;;16.20;99.90;;;;;;6177578;23;20613;-94
2021/08/25 07:13:58;;;;;;;7.10;6.50;;;16.20;99.90;;;;;;6177713;23;20790;-94
2021/08/25 07:16:25;;;;;;;5.73;5.33;;;16.30;99.90;;;;;;6181308;23;20601;-94
2021/08/25 07:18:52;;;;;;;5.63;5.13;;;16.50;99.90;;;;;;6157056;23;21195;-93
2021/08/25 07:21:19;;;;;;;5.20;4.80;;;16.50;99.90;;;;;;6182180;23;20682;-92
2021/08/25 07:23:50;;;;;;;6.63;5.83;;;16.70;99.90;;;;;;6178614;23;20627;-93
2021/08/25 07:26:18;;;;;;;6.87;5.50;;;16.80;99.90;;;;;;6179738;23;20571;-93
2021/08/25 07:28:48;;;;;;;5.83;5.40;;;17.00;99.90;;;;;;6183001;23;20702;-92
2021/08/25 07:31:15;;;;;;;5.63;5.00;;;17.10;99.90;;;;;;6178641;23;20628;-92
2021/08/25 07:33:43;;;;;;;6.13;5.47;;;17.10;99.90;;;;;;6177173;23;20623;-92
2021/08/25 07:36:10;;;;;;;5.53;5.13;;;17.10;99.90;;;;;;6178733;23;20997;-93
2021/08/25 07:38:37;;;;;;;5.80;5.20;;;17.10;99.90;;;;;;6180297;23;20606;-92
2021/08/25 07:41:08;;;;;;;5.40;5.00;;;17.10;99.90;;;;;;6154137;23;21144;-91
2021/08/25 07:43:37;;;;;;;6.30;5.70;;;17.20;99.90;;;;;;6182847;23;20635;-92
2021/08/25 07:46:04;;;;;;;17.17;6.23;;;17.20;99.90;;;;;;6156398;23;20591;-92
2021/08/25 07:48:31;;;;;;;6.13;5.60;;;17.20;99.90;;;;;;6181443;23;20651;-92
2021/08/25 07:50:58;;;;;;;5.40;4.90;;;17.60;99.90;;;;;;6182331;23;20562;-92
2021/08/25 07:53:26;;;;;;;8.27;6.07;;;17.70;99.90;;;;;;6181151;23;20599;-93
2021/08/25 07:55:53;;;;;;;5.97;5.40;;;17.70;99.90;;;;;;6181133;23;20607;-93
2021/08/25 07:58:20;;;;;;;6.20;5.70;;;18.00;99.90;;;;;;6181531;23;21122;-93
2021/08/25 08:00:48;;;;;;;8.63;6.43;;;18.20;99.90;;;;;;6182849;23;20563;-93
2021/08/25 08:03:15;;;;;;;9.93;6.00;;;18.20;99.90;;;;;;6180726;23;20654;-92
2021/08/25 08:05:43;;;;;;;7.00;5.83;;;18.00;99.90;;;;;;6182637;23;20587;-93
2021/08/25 08:08:10;;;;;;;6.90;6.27;;;18.20;99.90;;;;;;6156395;23;20637;-92
2021/08/25 08:10:37;;;;;;;6.00;5.60;;;18.20;99.90;;;;;;6182492;23;20587;-92
2021/08/25 08:13:04;;;;;;;6.53;5.90;;;18.30;99.90;;;;;;6181844;23;20678;-92
2021/08/25 08:15:33;;;;;;;6.03;5.50;;;18.50;99.90;;;;;;6182435;23;20570;-91
2021/08/25 08:18:09;;;;;;;6.70;6.17;;;18.30;99.90;;;;;;6181366;23;20598;-93
2021/08/25 08:20:36;;;;;;;6.83;6.23;;;18.10;99.90;;;;;;6182193;23;21079;-92
2021/08/25 08:23:03;;;;;;;6.63;5.13;;;18.40;99.90;;;;;;6181388;23;20634;-91
2021/08/25 08:25:30;;;;;;;7.70;5.37;;;18.50;99.90;;;;;;6182479;23;21204;-92
2021/08/25 08:27:56;;;;;;;5.43;4.93;;;18.40;99.90;;;;;;6192774;23;20602;-92
2021/08/25 08:30:23;;;;;;;9.80;5.60;;;18.50;99.90;;;;;;6203066;23;20575;-93
2021/08/25 08:32:50;;;;;;;8.40;6.60;;;18.70;99.90;;;;;;6191308;23;21091;-93
2021/08/25 08:35:19;;;;;;;8.50;5.27;;;18.70;99.90;;;;;;6183176;23;20674;-93
2021/08/25 08:37:48;;;;;;;7.20;5.63;;;18.90;99.90;;;;;;6183101;23;20578;-91
2021/08/25 08:40:15;;;;;;;6.10;5.50;;;18.80;99.90;;;;;;6185560;23;20605;-91
2021/08/25 08:42:42;;;;;;;8.50;5.23;;;18.90;99.90;;;;;;6184048;23;20591;-91
2021/08/25 08:45:10;;;;;;;8.40;5.87;;;19.10;99.90;;;;;;6188310;23;21102;-92
2021/08/25 08:47:40;;;;;;;5.50;5.00;;;19.30;99.90;;;;;;6189999;23;20576;-91
2021/08/25 08:50:08;;;;;;;5.80;4.83;;;19.60;99.90;;;;;;6201324;23;20580;-91
2021/08/25 08:52:37;;;;;;;4.80;4.40;;;19.70;99.90;;;;;;6203818;23;20611;-92
2021/08/25 08:55:05;;;;;;;4.80;4.40;;;19.80;99.90;;;;;;6198666;23;20693;-92
2021/08/25 08:57:32;;;;;;;5.10;4.67;;;19.80;99.90;;;;;;6184951;23;20602;-93
2021/08/25 09:00:00;;;;;;;4.87;4.57;;;19.90;99.90;;;;;;6184286;23;20848;-92
2021/08/25 09:02:44;;;;;;;4.97;4.47;;;20.20;99.90;;;;;;6193098;23;20594;-93
2021/08/25 09:05:19;;;;;;;6.43;4.37;;;20.20;99.90;;;;;;6184147;23;20646;-92
2021/08/25 09:07:50;;;;;;;4.73;4.33;;;20.20;99.90;;;;;;6182104;23;20602;-92
2021/08/25 09:10:22;;;;;;;4.50;4.10;;;19.90;99.90;;;;;;6183217;23;20583;-92
2021/08/25 09:12:50;;;;;;;7.23;5.00;;;20.00;99.90;;;;;;6182814;23;20579;-91
2021/08/25 09:15:21;;;;;;;8.10;3.27;;;20.00;99.90;;;;;;6183256;23;20632;-92
2021/08/25 09:18:01;;;;;;;3.97;3.67;;;20.20;99.90;;;;;;6156833;23;20646;-92
2021/08/25 09:20:29;;;;;;;4.43;4.10;;;20.30;99.90;;;;;;6183381;23;20599;-91
2021/08/25 09:23:17;;;;;;;5.33;4.70;;;20.50;99.90;;;;;;6156937;23;20625;-92
2021/08/25 09:25:45;;;;;;;5.50;4.40;;;20.60;99.90;;;;;;6181591;23;21001;-92
2021/08/25 09:28:14;;;;;;;4.37;3.47;;;20.80;99.90;;;;;;6181809;23;20552;-92
2021/08/25 09:30:55;;;;;;;4.60;4.20;;;20.80;99.90;;;;;;6179946;23;20586;-92
2021/08/25 09:33:24;;;;;;;3.43;2.93;;;21.20;99.90;;;;;;6180736;23;21162;-91
2021/08/25 09:35:50;;;;;;;4.37;3.97;;;21.10;99.90;;;;;;6186303;23;20588;-91
2021/08/25 09:38:20;;;;;;;4.20;3.80;;;21.10;99.90;;;;;;6180197;23;20580;-92
2021/08/25 09:40:48;;;;;;;3.63;3.30;;;21.40;99.90;;;;;;6181296;23;20579;-92
2021/08/25 09:43:32;;;;;;;4.53;3.87;;;21.50;99.90;;;;;;6181729;23;21294;-91
2021/08/25 09:46:17;;;;;;;7.37;3.93;;;21.80;99.90;;;;;;6183449;23;21018;-92
2021/08/25 09:48:46;;;;;;;4.10;3.80;;;21.90;99.90;;;;;;6156210;23;20579;-92
2021/08/25 09:51:15;;;;;;;4.43;3.90;;;21.30;99.90;;;;;;6157156;23;20675;-93
2021/08/25 09:53:46;;;;;;;5.17;4.07;;;21.60;99.90;;;;;;6155274;23;20615;-91
2021/08/25 09:56:24;;;;;;;5.40;3.93;;;21.50;99.90;;;;;;6181880;23;21008;-92
2021/08/25 09:58:51;;;;;;;4.37;3.93;;;21.60;99.90;;;;;;6182110;23;20583;-93
2021/08/25 10:01:19;;;;;;;4.70;4.13;;;21.60;99.90;;;;;;6181978;23;21000;-92
2021/08/25 10:03:47;;;;;;;4.43;4.03;;;21.90;99.90;;;;;;6179510;23;20722;-92
2021/08/25 10:06:16;;;;;;;4.63;4.20;;;22.00;99.90;;;;;;6179947;23;20622;-91
2021/08/25 10:08:46;;;;;;;4.83;4.43;;;22.10;99.90;;;;;;6179156;23;20584;-92
2021/08/25 10:11:13;;;;;;;5.77;4.03;;;22.50;99.90;;;;;;6180835;23;20594;-92
2021/08/25 10:13:42;;;;;;;6.83;4.50;;;22.60;99.90;;;;;;6188442;23;20607;-92
2021/08/25 10:16:13;;;;;;;4.27;3.87;;;22.50;99.90;;;;;;6154752;23;20634;-92
2021/08/25 10:18:41;;;;;;;4.40;3.60;;;21.60;99.90;;;;;;6180975;23;20583;-92
2021/08/25 10:21:43;;;;;;;7.83;3.70;;;21.30;99.90;;;;;;6183209;23;20846;-92
2021/08/25 10:24:17;;;;;;;4.70;4.30;;;22.30;99.90;;;;;;6181695;23;20627;-92
2021/08/25 10:27:07;;;;;;;4.43;3.90;;;23.10;97.90;;;;;;6154881;23;21021;-92
2021/08/25 10:29:57;;;;;;;4.07;3.60;;;23.20;96.50;;;;;;6157586;23;20584;-91
2021/08/25 10:32:35;;;;;;;4.30;4.00;;;23.30;96.60;;;;;;6181697;23;20582;-92
2021/08/25 10:35:20;;;;;;;4.10;3.63;;;23.20;95.30;;;;;;6184507;23;20674;-93
2021/08/25 10:37:47;;;;;;;5.43;4.30;;;23.20;95.80;;;;;;6188965;23;20995;-92
2021/08/25 10:40:16;;;;;;;5.60;4.10;;;23.20;93.60;;;;;;6193768;23;20583;-91
2021/08/25 10:42:48;;;;;;;4.70;4.30;;;23.60;93.60;;;;;;6187259;23;20944;-91
2021/08/25 10:45:16;;;;;;;3.97;3.50;;;23.40;93.60;;;;;;6185538;23;20646;-92
2021/08/25 10:48:08;;;;;;;4.03;3.73;;;23.30;95.40;;;;;;6183379;23;20696;-92
2021/08/25 10:50:52;;;;;;;4.43;4.03;;;23.80;93.80;;;;;;6182833;23;20559;-92
2021/08/25 10:53:40;;;;;;;4.27;3.40;;;24.10;93.30;;;;;;6181530;23;20615;-90
2021/08/25 10:56:09;;;;;;;3.97;3.60;;;23.50;92.90;;;;;;6180977;23;20516;-89
2021/08/25 10:58:44;;;;;;;5.20;4.50;;;24.20;92.40;;;;;;6178766;23;20560;-90
2021/08/25 11:01:26;;;;;;;10.03;3.87;;;23.70;92.40;;;;;;6179301;23;21154;-89
2021/08/25 11:03:54;;;;;;;4.70;4.10;;;24.20;88.70;;;;;;6180090;23;20634;-89
2021/08/25 11:06:35;;;;;;;4.93;3.73;;;24.60;90.20;;;;;;6179177;23;20591;-89
2021/08/25 11:09:32;;;;;;;4.50;4.10;;;24.60;90.40;;;;;;6179683;23;20556;-89
2021/08/25 11:12:02;;;;;;;6.87;4.57;;;24.90;88.20;;;;;;6179531;23;20556;-90
2021/08/25 11:14:34;;;;;;;5.03;3.77;;;24.60;87.50;;;;;;6179485;23;21239;-90
2021/08/25 11:17:07;;;;;;;5.00;4.20;;;25.00;85.70;;;;;;6180939;23;20569;-90
2021/08/25 11:19:39;;;;;;;4.37;3.97;;;24.90;87.90;;;;;;6180275;23;21053;-89
2021/08/25 11:22:07;;;;;;;4.47;4.17;;;24.90;87.40;;;;;;6186354;23;20587;-91
2021/08/25 11:24:37;;;;;;;4.00;3.70;;;24.60;90.20;;;;;;6182074;23;20968;-89
2021/08/25 11:27:16;;;;;;;4.03;3.63;;;24.80;87.40;;;;;;6179362;23;21022;-89
2021/08/25 11:29:43;;;;;;;4.37;3.97;;;24.80;88.80;;;;;;6179369;23;20558;-90
2021/08/25 11:32:11;;;;;;;8.73;4.53;;;25.10;83.70;;;;;;6181802;23;20641;-90
2021/08/25 11:34:44;;;;;;;4.37;4.00;;;25.30;81.60;;;;;;6184802;23;20682;-91
2021/08/25 11:37:10;;;;;;;4.30;3.90;;;25.50;85.20;;;;;;6181263;23;20556;-92
2021/08/25 11:39:37;;;;;;;4.97;4.53;;;25.50;79.70;;;;;;6182293;23;20595;-90
2021/08/25 11:42:04;;;;;;;4.80;4.40;;;25.70;80.50;;;;;;6179320;23;20564;-90
2021/08/25 11:44:43;;;;;;;4.90;4.03;;;25.60;83.20;;;;;;6180002;23;20632;-90
2021/08/25 11:47:15;;;;;;;4.30;4.00;;;25.90;80.30;;;;;;6187570;23;20919;-91
2021/08/25 11:49:49;;;;;;;6.63;5.10;;;25.90;80.30;;;;;;6179388;23;21168;-92
2021/08/25 11:52:18;;;;;;;4.53;4.20;;;26.10;77.00;;;;;;6182648;23;20566;-91
2021/08/25 11:54:46;;;;;;;4.57;4.17;;;25.10;78.10;;;;;;6200768;23;20576;-92
2021/08/25 11:57:15;;;;;;;10.00;4.23;;;24.50;81.70;;;;;;6195999;23;20678;-90
2021/08/25 12:00:03;;;;;;;5.40;4.63;;;25.10;80.30;;;;;;6182101;23;20556;-89
2021/08/25 12:02:30;;;;;;;4.80;4.27;;;25.70;76.20;;;;;;6172867;23;20669;-92
2021/08/25 12:05:19;;;;;;;5.00;4.47;;;26.00;76.30;;;;;;6181634;23;20632;-92
2021/08/25 12:08:04;;;;;;;6.97;4.63;;;26.70;75.40;;;;;;6181752;23;20554;-91
2021/08/25 12:10:32;;;;;;;5.30;4.47;;;27.20;75.30;;;;;;6180923;23;20655;-90
2021/08/25 12:12:59;;;;;;;4.30;3.90;;;27.00;72.80;;;;;;6181622;23;20614;-91
2021/08/25 12:15:47;;;;;;;5.40;5.00;;;27.10;71.00;;;;;;6179095;23;20563;-91
2021/08/25 12:18:16;;;;;;;5.10;4.70;;;27.40;70.00;;;;;;6180778;23;20552;-91
2021/08/25 12:20:53;;;;;;;5.83;4.67;;;27.60;69.30;;;;;;6180532;23;20553;-91
2021/08/25 12:23:23;;;;;;;5.20;4.73;;;27.70;69.60;;;;;;6181608;23;20615;-91
2021/08/25 12:25:52;;;;;;;4.80;4.33;;;27.90;70.10;;;;;;6180572;23;20702;-91
2021/08/25 12:28:32;;;;;;;6.23;5.63;;;28.20;67.40;;;;;;6180812;23;20551;-92
2021/08/25 12:31:11;;;;;;;5.80;5.30;;;28.10;67.80;;;;;;6181670;23;20569;-89
2021/08/25 12:33:38;;;;;;;5.13;4.63;;;27.60;70.20;;;;;;6181600;23;20618;-91
2021/08/25 12:39:12;;;;;;;4.30;4.00;;;27.80;69.50;;;;;;5085966;27;21012;-91
2021/08/25 12:41:40;;;;;;;5.80;5.40;;;28.40;67.80;;;;;;5081887;28;21609;-92
2021/08/25 12:44:11;;;;;;;4.73;4.33;;;28.10;68.00;;;;;;5087904;28;21052;-90
2021/08/25 12:46:50;;;;;;;5.77;5.27;;;28.90;68.20;;;;;;5093829;28;20646;-92
2021/08/25 12:49:17;;;;;;;5.10;4.60;;;29.10;65.70;;;;;;5084676;28;20772;-91
2021/08/25 12:51:44;;;;;;;5.70;5.20;;;29.60;64.70;;;;;;5083107;28;21105;-90
2021/08/25 12:54:12;;;;;;;6.13;5.67;;;29.00;62.20;;;;;;5083859;28;20628;-89
2021/08/25 12:56:41;;;;;;;5.97;5.57;;;29.30;63.70;;;;;;5092104;28;20630;-90
2021/08/25 12:59:08;;;;;;;5.37;4.97;;;29.00;66.20;;;;;;5085859;28;20628;-90
2021/08/25 13:01:35;;;;;;;5.30;4.90;;;29.40;66.30;;;;;;5085550;28;20735;-90
2021/08/25 13:04:02;;;;;;;5.47;4.97;;;29.20;64.60;;;;;;5081007;28;20615;-90
2021/08/25 13:06:29;;;;;;;5.50;5.10;;;27.70;66.30;;;;;;5084248;28;20638;-94
2021/08/25 13:08:56;;;;;;;5.83;5.30;;;27.10;66.50;;;;;;5084988;28;20747;-95
2021/08/25 13:11:24;;;;;;;5.50;5.10;;;27.00;66.30;;;;;;5084799;28;20638;-93
2021/08/25 13:13:52;;;;;;;5.60;5.10;;;26.90;66.70;;;;;;5086806;28;20715;-94
2021/08/25 13:16:20;;;;;;;6.73;6.13;;;27.10;65.40;;;;;;5086735;28;20616;-95
2021/08/25 13:18:48;;;;;;;9.73;5.93;;;28.30;66.20;;;;;;5084857;28;20667;-94
2021/08/25 13:21:16;;;;;;;6.50;5.90;;;29.00;64.90;;;;;;5086255;28;20616;-94
2021/08/25 13:23:44;;;;;;;6.00;5.50;;;29.40;60.60;;;;;;5084415;28;21171;-94
2021/08/25 13:26:20;;;;;;;7.23;6.60;;;29.80;63.10;;;;;;5085291;28;20635;-95
2021/08/25 13:28:49;;;;;;;6.43;5.93;;;29.70;59.50;;;;;;5086366;28;21427;-95
2021/08/25 13:31:15;;;;;;;5.90;5.30;;;29.50;59.50;;;;;;5085108;28;20813;-95
2021/08/25 13:33:44;;;;;;;6.50;6.00;;;29.60;59.40;;;;;;5086311;28;20627;-94
2021/08/25 13:36:11;;;;;;;5.70;5.20;;;29.00;59.30;;;;;;5082081;28;20615;-94
2021/08/25 13:38:37;;;;;;;5.97;5.57;;;28.80;59.00;;;;;;5083975;28;20690;-94
2021/08/25 13:41:05;;;;;;;6.23;5.73;;;28.90;60.70;;;;;;5082398;28;20634;-94
2021/08/25 13:43:32;;;;;;;6.50;5.97;;;29.00;62.70;;;;;;5083511;28;21165;-95
2021/08/25 13:46:00;;;;;;;5.83;5.33;;;29.30;61.20;;;;;;5082289;28;21288;-94
2021/08/25 13:48:28;;;;;;;6.67;6.17;;;29.70;60.80;;;;;;5080688;28;20720;-94
2021/08/25 13:50:55;;;;;;;6.37;5.90;;;29.80;59.70;;;;;;5076067;28;20634;-94
2021/08/25 13:53:22;;;;;;;5.70;5.20;;;30.40;58.40;;;;;;5074625;28;20631;-94
2021/08/25 13:55:48;;;;;;;5.63;5.17;;;30.80;59.40;;;;;;5074897;28;20643;-95
2021/08/25 13:58:15;;;;;;;5.67;5.00;;;30.20;58.40;;;;;;5076701;28;20683;-94
2021/08/25 14:00:42;;;;;;;6.90;6.37;;;30.40;60.40;;;;;;5074493;28;20637;-95
2021/08/25 14:03:13;;;;;;;6.70;6.10;;;30.20;58.80;;;;;;5072647;28;20690;-96
2021/08/25 14:05:40;;;;;;;5.60;5.20;;;30.50;57.90;;;;;;5071463;28;20625;-95
2021/08/25 14:08:08;;;;;;;5.73;5.23;;;30.80;57.90;;;;;;5068224;28;20667;-96
2021/08/25 14:10:36;;;;;;;6.30;5.80;;;31.00;57.90;;;;;;5067924;28;20674;-95
2021/08/25 14:13:24;;;;;;;6.70;6.20;;;31.30;58.40;;;;;;5076743;28;20209;-95
2021/08/25 14:15:55;;;;;;;6.40;5.80;;;31.30;57.20;;;;;;5069041;28;20569;-94
2021/08/25 14:18:24;;;;;;;6.00;5.53;;;30.80;56.80;;;;;;5070321;28;20226;-96